Airfield :
LOGIN :

Register | Disclaimer

   EN    FR    IT 

 










Legend :    VFR   Marginal VFR   IFR   Intensive IFR   Very Intensive IFR
Visi :
Ceiling :
>= 8 km
>= 3000ft
5 to 8 km
1000 to 3000 ft
1500m to 5 km
500 to 1000 ft
800 to 1500m
200 to 500 ft
< 800m
< 200 ft
Symbols :   Thunderstorms  Fog  Heavy snow  Heavy precipitations  Wind > 20 kt
SIGMETs :     Misc.  Thunderstorms  Icing  Turbulence  Mountain Waves  Volcanic Ashes






- Airport Elevation : 681 ft
- IATA code : LBA


EGNM - Leeds Bradford

CURRENT METAR :
  • 191520Z 16011KT 9999 FEW020 11/07 Q1008

EXPIRED METARs :
  • 191450Z 16009KT 9999 FEW020 11/07 Q1009
  • 191420Z 16007KT 140V200 9999 FEW020 11/08 Q1009
  • 191350Z 16010KT 9999 FEW020 11/07 Q1010
  • 191320Z 17008KT 9999 FEW020 11/07 Q1010
  • 191250Z 17009KT 9999 FEW020 11/07 Q1011

TAF TAF EGNM
Valid from the 19 at 12:00 until the 20 at 12:00 UTC


191101Z 1912/2012 15009KT 9999 FEW045
PROB30
TEMPO 1912/1918 19015G25KT
TEMPO 1916/1922 7000 RA
TEMPO 2002/2008 7000 RA BKN008
PROB30
TEMPO 2003/2007 3000 +RA BKN004
TEMPO 2008/2011 BKN014
PROB30
TEMPO 2008/2010 8000 BKN006
ATIS : +44 113 250 9696 (x2489)



MET'MAP, your aeronautical weather chart ! - Copyright ORBIFLY December 2007 - Disclaimer

ORBIFLY MET'MAP TEAM :

Programming & Development : Alexandra Zaïnal
Concept & original design : Baudouin d'Aumeries
Assistance for programming : Marc-Olivier Méhu
Technical & hardware support : Manuel Goepfert

Contact : metmap@orbifly.com




SOURCES & CREDITS :

   NOAA